Time;durP1;ratioP1;P1;durP2;ratioP2;P2;SDS_P1;SDS_P2;PMS_P1;PMS_P2;Temp;Humidity;BMP_temperature;BMP_pressure;BME280_temperature;BME280_humidity;BME280_pressure;Samples;Min_cycle;Max_cycle;Signal;HPM_P1;HPM_P2
2022/07/20 00:02:21;;;;;;;0.00;0.00;;;29.40;53.30;;;;;;4189974;28;20562;-65
2022/07/20 00:04:42;;;;;;;0.40;0.40;;;29.40;53.30;;;;;;4191288;28;20506;-64
2022/07/20 00:07:06;;;;;;;0.00;0.00;;;29.30;53.00;;;;;;4190690;28;20098;-63
2022/07/20 00:12:08;;;;;;;0.00;0.00;;;29.30;54.00;;;;;;4191996;28;20072;-64
2022/07/20 00:14:31;;;;;;;2.30;1.00;;;29.30;53.10;;;;;;4191493;28;20055;-64
2022/07/20 00:16:52;;;;;;;0.00;0.00;;;29.30;53.30;;;;;;4191613;28;20047;-64
2022/07/20 00:19:15;;;;;;;0.00;0.00;;;29.30;53.10;;;;;;4190545;28;20494;-63
2022/07/20 00:21:37;;;;;;;0.00;0.00;;;29.30;53.20;;;;;;4192365;28;20402;-63
2022/07/20 00:24:00;;;;;;;0.00;0.00;;;29.20;53.10;;;;;;4191313;28;20190;-63
2022/07/20 00:26:22;;;;;;;0.00;0.00;;;29.20;53.10;;;;;;4191959;28;20059;-63
2022/07/20 00:28:46;;;;;;;0.30;0.30;;;29.20;53.20;;;;;;4191665;28;20053;-64
2022/07/20 00:31:09;;;;;;;0.20;0.20;;;29.20;53.20;;;;;;4191919;28;20502;-63
2022/07/20 00:33:31;;;;;;;0.32;0.32;;;29.20;53.10;;;;;;4194128;28;20055;-63
2022/07/20 00:35:53;;;;;;;0.00;0.00;;;29.20;52.80;;;;;;4195173;28;20071;-63
2022/07/20 00:38:15;;;;;;;0.15;0.15;;;29.20;53.00;;;;;;4194144;28;20151;-63
2022/07/20 00:40:39;;;;;;;0.00;0.00;;;29.20;53.00;;;;;;4185433;28;20052;-63
2022/07/20 00:43:01;;;;;;;0.20;0.20;;;29.20;53.00;;;;;;4194473;28;20098;-63
2022/07/20 00:45:23;;;;;;;0.10;0.10;;;29.20;53.60;;;;;;4177602;28;20049;-63
2022/07/20 00:47:47;;;;;;;0.03;0.03;;;29.10;52.80;;;;;;4178112;28;20118;-63
2022/07/20 00:50:11;;;;;;;0.00;0.00;;;29.10;52.90;;;;;;4173952;28;20337;-63
2022/07/20 00:52:35;;;;;;;0.00;0.00;;;29.10;52.90;;;;;;4173014;28;20063;-63
2022/07/20 00:55:02;;;;;;;0.00;0.00;;;29.10;53.00;;;;;;4189572;28;20398;-63
2022/07/20 00:57:32;;;;;;;0.00;0.00;;;29.10;53.00;;;;;;4176020;28;20060;-63
2022/07/20 00:59:55;;;;;;;0.00;0.00;;;29.00;52.80;;;;;;4190786;28;20064;-62
2022/07/20 01:02:17;;;;;;;0.00;0.00;;;29.00;52.80;;;;;;4182533;28;20189;-63
2022/07/20 01:04:40;;;;;;;0.60;0.60;;;29.00;52.90;;;;;;4190815;28;20056;-64
2022/07/20 01:07:06;;;;;;;0.05;0.05;;;29.00;52.90;;;;;;4177731;28;20811;-62
2022/07/20 01:09:29;;;;;;;1.00;0.75;;;29.00;52.90;;;;;;4184685;28;20400;-63
2022/07/20 01:11:51;;;;;;;4.78;0.60;;;29.00;52.90;;;;;;4195195;28;20055;-63
2022/07/20 01:14:15;;;;;;;0.00;0.00;;;29.00;52.80;;;;;;4194371;28;20556;-64
2022/07/20 01:16:38;;;;;;;0.20;0.20;;;29.00;53.00;;;;;;4194374;28;20510;-63
2022/07/20 01:19:01;;;;;;;0.13;0.13;;;29.00;53.10;;;;;;4193349;28;20071;-63
2022/07/20 01:21:25;;;;;;;0.35;0.35;;;28.90;53.00;;;;;;4195087;28;20141;-62
2022/07/20 01:23:47;;;;;;;0.00;0.00;;;28.90;52.80;;;;;;4182748;28;20056;-62
2022/07/20 01:26:09;;;;;;;0.00;0.00;;;28.90;53.00;;;;;;4192274;28;20056;-63
2022/07/20 01:28:31;;;;;;;0.15;0.15;;;28.90;52.90;;;;;;4194354;28;20119;-62
2022/07/20 01:30:53;;;;;;;0.00;0.00;;;28.90;53.00;;;;;;4194255;28;20139;-63
2022/07/20 01:33:15;;;;;;;1.08;0.98;;;28.90;52.90;;;;;;4194724;28;20052;-62
2022/07/20 01:35:37;;;;;;;0.00;0.00;;;28.80;52.90;;;;;;4194208;28;20049;-63
2022/07/20 01:38:00;;;;;;;0.10;0.10;;;28.90;53.10;;;;;;4183907;28;20169;-63
2022/07/20 01:40:23;;;;;;;0.00;0.00;;;28.90;53.00;;;;;;4193783;28;20048;-62
2022/07/20 01:42:45;;;;;;;0.00;0.00;;;28.80;53.00;;;;;;4177617;28;20400;-62
2022/07/20 01:45:07;;;;;;;0.00;0.00;;;28.80;53.00;;;;;;4176317;28;20045;-63
2022/07/20 01:47:29;;;;;;;0.10;0.10;;;28.80;52.90;;;;;;4175899;28;20048;-63
2022/07/20 01:49:51;;;;;;;0.10;0.10;;;28.80;52.80;;;;;;4177485;28;20136;-62
2022/07/20 01:52:14;;;;;;;0.00;0.00;;;28.80;52.90;;;;;;4177386;28;20124;-63
2022/07/20 01:54:37;;;;;;;0.13;0.13;;;28.80;52.80;;;;;;4177327;28;20099;-62
2022/07/20 01:56:59;;;;;;;0.22;0.22;;;28.80;52.80;;;;;;4177510;28;20396;-63
2022/07/20 01:59:21;;;;;;;0.00;0.00;;;28.70;52.80;;;;;;4190290;28;20053;-63
2022/07/20 02:01:43;;;;;;;0.10;0.10;;;28.70;52.80;;;;;;4193937;28;20068;-64
2022/07/20 02:04:05;;;;;;;0.10;0.10;;;28.70;52.80;;;;;;4194338;28;20447;-63
2022/07/20 02:06:27;;;;;;;0.30;0.30;;;28.70;52.80;;;;;;4193794;28;20126;-63
2022/07/20 02:08:50;;;;;;;0.00;0.00;;;28.70;52.70;;;;;;4193420;28;20113;-63
2022/07/20 02:11:14;;;;;;;0.52;0.30;;;28.70;52.70;;;;;;4193694;28;20476;-63
2022/07/20 02:13:37;;;;;;;0.00;0.00;;;28.70;52.70;;;;;;4192403;28;20054;-63
2022/07/20 02:16:17;;;;;;;0.00;0.00;;;28.70;52.80;;;;;;4193399;28;20510;-62
2022/07/20 02:18:39;;;;;;;0.00;0.00;;;28.70;52.70;;;;;;4193340;28;20059;-63
2022/07/20 02:21:01;;;;;;;0.00;0.00;;;28.70;52.60;;;;;;4193531;28;20049;-63
2022/07/20 02:23:23;;;;;;;2.08;1.15;;;28.60;52.40;;;;;;4193687;28;20581;-62
2022/07/20 02:25:45;;;;;;;0.00;0.00;;;28.70;52.60;;;;;;4193417;28;20403;-63
2022/07/20 02:28:09;;;;;;;0.00;0.00;;;28.60;52.60;;;;;;4193150;28;20523;-63
2022/07/20 02:30:30;;;;;;;0.00;0.00;;;28.60;52.70;;;;;;4193347;28;20392;-63
2022/07/20 02:32:52;;;;;;;0.52;0.52;;;28.60;52.70;;;;;;4193549;28;20052;-63
2022/07/20 02:35:14;;;;;;;0.00;0.00;;;28.60;52.70;;;;;;4193337;28;20048;-63
2022/07/20 02:37:37;;;;;;;0.03;0.03;;;28.60;52.80;;;;;;4193423;28;20125;-62
2022/07/20 02:39:59;;;;;;;0.03;0.03;;;28.60;52.70;;;;;;4192835;28;20574;-63
2022/07/20 02:42:20;;;;;;;0.00;0.00;;;28.60;52.70;;;;;;4193304;28;20055;-62
2022/07/20 02:44:44;;;;;;;0.00;0.00;;;28.50;52.60;;;;;;4193062;28;20079;-62
2022/07/20 02:47:06;;;;;;;0.08;0.08;;;28.50;52.40;;;;;;4193386;28;20097;-62
2022/07/20 02:49:28;;;;;;;0.00;0.00;;;28.50;52.40;;;;;;4192332;28;20491;-62
2022/07/20 02:51:50;;;;;;;0.00;0.00;;;28.50;52.60;;;;;;4192718;28;20055;-62
2022/07/20 02:54:12;;;;;;;0.00;0.00;;;28.50;52.50;;;;;;4193046;28;20049;-62
2022/07/20 02:56:34;;;;;;;0.00;0.00;;;28.50;52.30;;;;;;4191681;28;20435;-62
2022/07/20 02:58:56;;;;;;;0.00;0.00;;;28.50;52.30;;;;;;4192713;28;20044;-63
2022/07/20 03:01:19;;;;;;;0.00;0.00;;;28.50;52.40;;;;;;4193004;28;20098;-63
2022/07/20 03:03:42;;;;;;;0.00;0.00;;;28.40;52.30;;;;;;4192428;28;20446;-63
2022/07/20 03:06:05;;;;;;;0.00;0.00;;;28.40;52.30;;;;;;4174823;28;20053;-63
2022/07/20 03:08:27;;;;;;;0.00;0.00;;;28.40;52.30;;;;;;4176204;28;20098;-64
2022/07/20 03:10:49;;;;;;;0.00;0.00;;;28.40;52.40;;;;;;4177772;28;20153;-64
2022/07/20 03:13:10;;;;;;;0.00;0.00;;;28.40;52.50;;;;;;4193006;28;20139;-63
2022/07/20 03:15:33;;;;;;;0.00;0.00;;;28.40;52.30;;;;;;4192361;28;20060;-63
2022/07/20 03:17:57;;;;;;;0.10;0.10;;;28.40;52.10;;;;;;4176172;28;20044;-62
2022/07/20 03:20:21;;;;;;;0.43;0.38;;;28.40;52.30;;;;;;4182495;28;20144;-63
2022/07/20 03:22:42;;;;;;;0.00;0.00;;;28.40;52.20;;;;;;4192756;28;20063;-63
2022/07/20 03:25:06;;;;;;;0.00;0.00;;;28.30;52.30;;;;;;4192382;28;20097;-63
2022/07/20 03:27:28;;;;;;;0.10;0.10;;;28.30;52.30;;;;;;4191292;28;20074;-63
2022/07/20 03:29:49;;;;;;;0.00;0.00;;;28.30;52.30;;;;;;4191986;28;20467;-64
2022/07/20 03:32:12;;;;;;;0.00;0.00;;;28.30;52.30;;;;;;4192492;28;20109;-63
2022/07/20 03:34:36;;;;;;;0.10;0.10;;;28.30;52.30;;;;;;4192078;28;20063;-63
2022/07/20 03:36:58;;;;;;;0.00;0.00;;;28.30;52.40;;;;;;4192395;28;20083;-63
2022/07/20 03:39:20;;;;;;;2.85;0.95;;;28.30;52.20;;;;;;4192303;28;20489;-63
2022/07/20 03:41:42;;;;;;;0.05;0.05;;;28.30;52.20;;;;;;4192622;28;20045;-63
2022/07/20 03:44:04;;;;;;;0.10;0.10;;;28.30;52.20;;;;;;4190737;28;20106;-63
2022/07/20 03:46:26;;;;;;;0.00;0.00;;;28.20;52.30;;;;;;4192170;28;20127;-63
2022/07/20 03:48:48;;;;;;;2.45;0.52;;;28.20;52.40;;;;;;4191888;28;20159;-63
2022/07/20 03:51:12;;;;;;;0.00;0.00;;;28.20;52.10;;;;;;4191986;28;20079;-63
2022/07/20 03:53:34;;;;;;;1.95;0.52;;;28.20;52.20;;;;;;4190606;28;20545;-63
2022/07/20 03:56:01;;;;;;;0.00;0.00;;;28.20;52.30;;;;;;4192430;28;20071;-62
2022/07/20 03:58:23;;;;;;;0.08;0.08;;;28.20;52.10;;;;;;4191694;28;20514;-62
2022/07/20 04:00:45;;;;;;;0.65;0.65;;;28.20;52.00;;;;;;4192630;28;20102;-62
2022/07/20 04:03:07;;;;;;;0.38;0.38;;;28.20;52.10;;;;;;4192430;28;20391;-62
2022/07/20 04:05:29;;;;;;;0.00;0.00;;;28.20;52.00;;;;;;4191833;28;20484;-62
2022/07/20 04:07:53;;;;;;;0.10;0.10;;;28.20;52.20;;;;;;4191641;28;20048;-63
2022/07/20 04:10:15;;;;;;;0.00;0.00;;;28.10;52.30;;;;;;4191847;28;20553;-63
2022/07/20 04:12:42;;;;;;;0.00;0.00;;;28.10;52.20;;;;;;4192029;28;20048;-62
2022/07/20 04:15:05;;;;;;;0.00;0.00;;;28.10;52.10;;;;;;4191831;28;20078;-63
2022/07/20 04:17:27;;;;;;;0.00;0.00;;;28.10;52.20;;;;;;4192322;28;20057;-63
2022/07/20 04:19:49;;;;;;;0.00;0.00;;;28.10;52.10;;;;;;4191574;28;20105;-63
2022/07/20 04:22:12;;;;;;;0.00;0.00;;;28.10;52.40;;;;;;4190689;28;20146;-63
2022/07/20 04:24:36;;;;;;;0.25;0.25;;;28.10;52.50;;;;;;4191859;28;20075;-63
2022/07/20 04:26:58;;;;;;;0.00;0.00;;;28.10;52.50;;;;;;4192339;28;20392;-63
2022/07/20 04:29:20;;;;;;;0.00;0.00;;;28.10;52.40;;;;;;4191481;28;20156;-63
2022/07/20 04:31:42;;;;;;;0.22;0.22;;;28.10;52.30;;;;;;4192166;28;20046;-63
2022/07/20 04:34:04;;;;;;;0.00;0.00;;;28.10;52.30;;;;;;4191727;28;20055;-64
2022/07/20 04:36:26;;;;;;;0.17;0.13;;;28.10;52.30;;;;;;4191965;28;20162;-64
2022/07/20 04:38:48;;;;;;;0.00;0.00;;;28.20;52.30;;;;;;4192001;28;20052;-64
2022/07/20 04:41:12;;;;;;;0.10;0.10;;;28.10;52.20;;;;;;4191864;28;20067;-64
2022/07/20 04:43:34;;;;;;;0.75;0.75;;;28.20;52.40;;;;;;4174934;28;20106;-64
2022/07/20 04:45:55;;;;;;;0.03;0.03;;;28.20;52.30;;;;;;4175405;28;20099;-64
2022/07/20 04:48:20;;;;;;;0.00;0.00;;;28.10;52.20;;;;;;4175082;28;20055;-64
2022/07/20 04:50:42;;;;;;;0.65;0.65;;;28.20;52.30;;;;;;4175249;28;20037;-64
2022/07/20 04:53:04;;;;;;;0.10;0.10;;;28.20;52.30;;;;;;4177780;28;20063;-64
2022/07/20 04:55:25;;;;;;;0.10;0.10;;;28.20;52.20;;;;;;4192014;28;20056;-64
2022/07/20 04:57:49;;;;;;;0.00;0.00;;;28.10;52.10;;;;;;4191365;28;20098;-64
2022/07/20 05:00:12;;;;;;;0.17;0.17;;;28.10;52.00;;;;;;4192037;28;20088;-63
2022/07/20 05:02:34;;;;;;;0.00;0.00;;;28.10;51.80;;;;;;4191878;28;20052;-62
2022/07/20 05:04:56;;;;;;;0.00;0.00;;;28.10;51.80;;;;;;4190237;28;20135;-62
2022/07/20 05:07:18;;;;;;;0.22;0.22;;;28.10;53.60;;;;;;4190255;28;20050;-63
2022/07/20 05:09:40;;;;;;;0.10;0.10;;;28.10;55.90;;;;;;4190230;28;20052;-63
2022/07/20 05:12:01;;;;;;;0.00;0.00;;;28.20;57.30;;;;;;4189834;28;20048;-64
2022/07/20 05:14:25;;;;;;;7.22;0.85;;;28.20;55.30;;;;;;4191595;28;21451;-62
2022/07/20 05:16:47;;;;;;;0.00;0.00;;;28.20;54.60;;;;;;4191166;28;20052;-62
2022/07/20 05:19:11;;;;;;;0.43;0.43;;;28.20;54.00;;;;;;4191831;28;20059;-62
2022/07/20 05:21:35;;;;;;;0.00;0.00;;;28.20;53.60;;;;;;4193987;28;20044;-62
2022/07/20 05:23:57;;;;;;;0.10;0.10;;;28.20;53.60;;;;;;4194424;28;20051;-63
2022/07/20 05:26:19;;;;;;;0.32;0.30;;;28.20;53.40;;;;;;4194487;28;20518;-63
2022/07/20 05:28:41;;;;;;;0.00;0.00;;;28.20;53.90;;;;;;4193322;28;20090;-62
2022/07/20 05:31:05;;;;;;;0.30;0.30;;;28.20;53.60;;;;;;4193856;28;20935;-63
2022/07/20 05:33:27;;;;;;;0.00;0.00;;;28.20;52.80;;;;;;4186327;28;20118;-63
2022/07/20 05:35:50;;;;;;;0.00;0.00;;;28.20;52.40;;;;;;4193651;28;20062;-64
2022/07/20 05:38:12;;;;;;;0.10;0.10;;;28.20;52.20;;;;;;4193946;28;20395;-63
2022/07/20 05:40:34;;;;;;;0.00;0.00;;;28.20;52.00;;;;;;4194099;28;20048;-63
2022/07/20 05:42:56;;;;;;;0.00;0.00;;;28.20;51.90;;;;;;4192415;28;20797;-63
2022/07/20 05:45:19;;;;;;;0.47;0.47;;;28.20;51.50;;;;;;4179495;28;20497;-63
2022/07/20 05:47:42;;;;;;;2.55;0.63;;;28.30;51.40;;;;;;4177316;28;20057;-62
2022/07/20 05:50:05;;;;;;;0.00;0.00;;;28.30;51.20;;;;;;4182819;28;20143;-63
2022/07/20 05:52:27;;;;;;;0.17;0.17;;;28.30;50.90;;;;;;4193962;28;20054;-62
2022/07/20 05:54:49;;;;;;;0.28;0.28;;;28.30;50.90;;;;;;4193243;28;20391;-63
2022/07/20 05:57:10;;;;;;;0.00;0.00;;;28.40;50.80;;;;;;4192388;28;20123;-62
2022/07/20 05:59:34;;;;;;;0.30;0.30;;;28.30;50.70;;;;;;4194073;28;20064;-62
2022/07/20 06:01:56;;;;;;;0.00;0.00;;;28.30;50.70;;;;;;4182971;28;20488;-62
2022/07/20 06:04:19;;;;;;;0.13;0.13;;;28.40;50.80;;;;;;4177188;28;20238;-62
2022/07/20 06:06:43;;;;;;;7.47;1.25;;;28.30;50.80;;;;;;4187086;28;20783;-63
2022/07/20 06:09:05;;;;;;;0.10;0.10;;;28.30;50.70;;;;;;4193680;28;20056;-63
2022/07/20 06:11:44;;;;;;;0.98;0.98;;;28.30;50.70;;;;;;4193569;28;20049;-63
2022/07/20 06:14:06;;;;;;;0.47;0.47;;;28.40;50.50;;;;;;4192807;28;20055;-63
2022/07/20 06:16:28;;;;;;;0.25;0.25;;;28.30;50.40;;;;;;4177336;28;20048;-62
2022/07/20 06:18:50;;;;;;;1.08;0.57;;;28.30;50.40;;;;;;4176596;28;20499;-63
2022/07/20 06:21:15;;;;;;;0.00;0.00;;;28.30;51.20;;;;;;4177173;28;20199;-63
2022/07/20 06:23:37;;;;;;;0.00;0.00;;;28.30;50.50;;;;;;4176905;28;20047;-63
2022/07/20 06:25:59;;;;;;;0.00;0.00;;;28.30;50.40;;;;;;4192908;28;20042;-63
2022/07/20 06:28:21;;;;;;;0.43;0.43;;;28.30;50.40;;;;;;4193222;28;20058;-63
2022/07/20 06:30:43;;;;;;;0.00;0.00;;;28.30;50.30;;;;;;4192837;28;20124;-62
2022/07/20 06:33:05;;;;;;;0.13;0.13;;;28.30;50.40;;;;;;4193038;28;20056;-64
2022/07/20 06:35:26;;;;;;;0.05;0.05;;;28.30;50.40;;;;;;4187755;28;20429;-62
2022/07/20 06:37:50;;;;;;;0.38;0.38;;;28.30;50.30;;;;;;4190361;28;20052;-63
2022/07/20 06:40:12;;;;;;;0.32;0.32;;;28.30;50.20;;;;;;4193554;28;20059;-63
2022/07/20 06:42:35;;;;;;;0.00;0.00;;;28.30;50.00;;;;;;4192846;28;20064;-63
2022/07/20 06:44:57;;;;;;;0.73;0.73;;;28.30;49.70;;;;;;4193255;28;20056;-63
2022/07/20 06:47:19;;;;;;;0.15;0.15;;;28.40;49.50;;;;;;4192754;28;20048;-63
2022/07/20 06:49:41;;;;;;;0.00;0.00;;;28.40;49.50;;;;;;4192877;28;20163;-62
2022/07/20 06:52:04;;;;;;;0.00;0.00;;;28.40;49.30;;;;;;4192811;28;20063;-63
2022/07/20 06:54:28;;;;;;;0.00;0.00;;;28.40;48.90;;;;;;4193006;28;20139;-63
2022/07/20 06:56:50;;;;;;;0.03;0.03;;;28.50;48.80;;;;;;4192636;28;20067;-63
2022/07/20 06:59:12;;;;;;;0.10;0.10;;;28.50;48.60;;;;;;4191421;28;20131;-63
2022/07/20 07:01:34;;;;;;;0.10;0.10;;;28.60;48.70;;;;;;4192236;28;20117;-62
2022/07/20 07:03:57;;;;;;;0.00;0.00;;;28.60;48.50;;;;;;4192449;28;20087;-63
2022/07/20 07:06:18;;;;;;;0.88;0.25;;;28.70;48.30;;;;;;4192878;28;20135;-62
2022/07/20 07:08:40;;;;;;;0.10;0.10;;;28.70;48.00;;;;;;4176730;28;20531;-63
2022/07/20 07:11:04;;;;;;;0.10;0.10;;;28.80;47.80;;;;;;4192547;28;20069;-62
2022/07/20 07:13:26;;;;;;;0.30;0.30;;;28.90;47.60;;;;;;4190707;28;20048;-63
2022/07/20 07:15:48;;;;;;;0.00;0.00;;;28.90;47.50;;;;;;4191570;28;20131;-63
2022/07/20 07:18:10;;;;;;;0.00;0.00;;;29.00;47.40;;;;;;4191646;28;20129;-67
2022/07/20 07:20:33;;;;;;;0.43;0.43;;;29.10;48.20;;;;;;4186637;28;20121;-68
2022/07/20 07:22:55;;;;;;;0.40;0.40;;;29.10;47.30;;;;;;4192240;28;20053;-68
2022/07/20 07:25:17;;;;;;;0.10;0.10;;;29.20;47.30;;;;;;4192141;28;20070;-68
2022/07/20 07:27:40;;;;;;;0.43;0.43;;;29.20;47.30;;;;;;4192134;28;20052;-67
2022/07/20 07:30:03;;;;;;;0.05;0.05;;;29.20;47.30;;;;;;4192269;28;20048;-68
2022/07/20 07:32:25;;;;;;;0.28;0.28;;;29.30;47.30;;;;;;4191334;28;20515;-68
2022/07/20 07:34:47;;;;;;;0.10;0.10;;;29.30;47.30;;;;;;4192333;28;20094;-68
2022/07/20 07:37:09;;;;;;;0.20;0.20;;;29.40;47.50;;;;;;4192641;28;20141;-68
2022/07/20 07:39:31;;;;;;;0.00;0.00;;;29.40;47.50;;;;;;4192212;28;20094;-68
2022/07/20 07:41:53;;;;;;;0.00;0.00;;;29.40;47.50;;;;;;4191281;28;20056;-67
2022/07/20 07:44:16;;;;;;;0.00;0.00;;;29.40;47.40;;;;;;4190734;28;20090;-68
2022/07/20 07:46:38;;;;;;;0.35;0.35;;;29.40;47.30;;;;;;4192280;28;20102;-68
2022/07/20 07:49:00;;;;;;;0.00;0.00;;;29.50;47.20;;;;;;4192078;28;20149;-68
2022/07/20 07:51:23;;;;;;;0.35;0.35;;;29.50;47.10;;;;;;4191959;28;20068;-67
2022/07/20 07:53:44;;;;;;;0.00;0.00;;;29.50;47.10;;;;;;4192053;28;20059;-68
2022/07/20 07:56:06;;;;;;;0.35;0.35;;;29.50;46.70;;;;;;4192169;28;20056;-68
2022/07/20 07:58:28;;;;;;;1.00;0.55;;;29.50;46.00;;;;;;4191873;28;20036;-68
2022/07/20 08:00:53;;;;;;;0.20;0.20;;;29.60;46.00;;;;;;4192273;28;20102;-69
2022/07/20 08:03:14;;;;;;;0.32;0.32;;;29.60;45.80;;;;;;4191668;28;20059;-67
2022/07/20 08:05:36;;;;;;;0.47;0.30;;;29.60;45.90;;;;;;4191254;28;20155;-68
2022/07/20 08:07:59;;;;;;;0.00;0.00;;;29.60;45.60;;;;;;4192308;28;20423;-68
2022/07/20 08:10:21;;;;;;;0.20;0.20;;;29.60;45.60;;;;;;4190079;28;20041;-68
2022/07/20 08:12:44;;;;;;;0.00;0.00;;;29.60;45.60;;;;;;4192069;28;20044;-68
2022/07/20 08:15:07;;;;;;;0.03;0.03;;;29.60;45.60;;;;;;4191705;28;20106;-68
2022/07/20 08:17:31;;;;;;;0.82;0.65;;;29.60;45.30;;;;;;4192064;28;20075;-68
2022/07/20 08:19:53;;;;;;;0.65;0.65;;;29.60;45.50;;;;;;4187412;28;20105;-68
2022/07/20 08:22:15;;;;;;;0.43;0.43;;;29.70;45.60;;;;;;4192354;28;20047;-68
2022/07/20 08:24:37;;;;;;;0.85;0.85;;;29.70;45.70;;;;;;4191429;28;20059;-68
2022/07/20 08:26:59;;;;;;;0.15;0.15;;;29.70;45.70;;;;;;4192370;28;20887;-68
2022/07/20 08:29:21;;;;;;;0.00;0.00;;;29.70;45.90;;;;;;4191712;28;20427;-67
2022/07/20 08:31:44;;;;;;;0.22;0.22;;;29.70;45.90;;;;;;4189848;28;20044;-63
2022/07/20 08:34:08;;;;;;;0.43;0.43;;;29.70;45.90;;;;;;4191644;28;20037;-63
2022/07/20 08:36:30;;;;;;;40.95;1.48;;;29.70;45.90;;;;;;4191825;28;20075;-63
2022/07/20 08:38:52;;;;;;;0.20;0.20;;;29.70;46.80;;;;;;4191632;28;20044;-63
2022/07/20 08:41:15;;;;;;;0.32;0.32;;;29.70;46.20;;;;;;4191834;28;20068;-63
2022/07/20 08:43:37;;;;;;;0.22;0.22;;;29.70;46.50;;;;;;4191387;28;20189;-63
2022/07/20 08:46:00;;;;;;;0.40;0.28;;;29.70;46.60;;;;;;4191325;28;20048;-63
2022/07/20 08:48:22;;;;;;;0.20;0.20;;;29.80;46.90;;;;;;4189965;28;20458;-63
2022/07/20 08:50:47;;;;;;;1.02;0.90;;;29.80;47.10;;;;;;4191323;28;20087;-63
2022/07/20 08:53:09;;;;;;;0.65;0.65;;;29.80;47.50;;;;;;4191528;28;20360;-63
2022/07/20 08:55:31;;;;;;;0.00;0.00;;;29.80;47.60;;;;;;4162980;28;20057;-63
2022/07/20 08:57:53;;;;;;;0.20;0.20;;;29.80;47.80;;;;;;4188021;28;20060;-63
2022/07/20 09:00:17;;;;;;;0.30;0.30;;;29.80;47.90;;;;;;4184695;28;20053;-63
2022/07/20 09:02:50;;;;;;;0.13;0.13;;;29.80;48.20;;;;;;4193354;28;20457;-63
2022/07/20 09:05:12;;;;;;;0.60;0.60;;;29.80;48.40;;;;;;4194721;28;20106;-63
2022/07/20 09:07:41;;;;;;;0.45;0.45;;;29.90;48.70;;;;;;4195076;28;20052;-63
2022/07/20 09:10:04;;;;;;;0.05;0.05;;;29.90;48.90;;;;;;4194288;28;20139;-63
2022/07/20 09:12:26;;;;;;;0.28;0.28;;;29.90;49.30;;;;;;4194629;28;20835;-62
2022/07/20 09:14:48;;;;;;;0.38;0.38;;;29.90;49.40;;;;;;4178145;28;20064;-63
2022/07/20 09:17:16;;;;;;;0.22;0.17;;;29.90;49.50;;;;;;4178340;28;20041;-63
2022/07/20 09:20:00;;;;;;;1.52;1.35;;;29.90;50.10;;;;;;4186191;28;20060;-63
2022/07/20 09:22:34;;;;;;;0.10;0.10;;;29.90;50.50;;;;;;4193544;28;20829;-63
2022/07/20 09:25:07;;;;;;;1.65;0.73;;;30.00;50.60;;;;;;4194413;28;20409;-63
2022/07/20 09:27:34;;;;;;;0.20;0.20;;;30.00;51.20;;;;;;4178088;28;20103;-63
2022/07/20 09:30:04;;;;;;;0.13;0.13;;;30.00;51.20;;;;;;4177300;28;20053;-63
2022/07/20 09:32:27;;;;;;;1.70;1.65;;;30.10;51.30;;;;;;4179487;28;20126;-63
2022/07/20 09:34:49;;;;;;;0.45;0.45;;;30.10;51.40;;;;;;4194152;28;20051;-62
2022/07/20 09:37:17;;;;;;;0.50;0.50;;;30.10;51.70;;;;;;4177393;28;20526;-63
2022/07/20 09:39:39;;;;;;;1.00;0.30;;;30.10;51.90;;;;;;4176464;28;20543;-63
2022/07/20 09:42:03;;;;;;;1.40;1.30;;;30.20;52.00;;;;;;4189208;28;20434;-63
2022/07/20 09:44:28;;;;;;;2.60;2.05;;;30.20;52.00;;;;;;4193632;28;20506;-63
2022/07/20 09:46:50;;;;;;;0.68;0.68;;;30.20;52.20;;;;;;4193148;28;20051;-63
2022/07/20 09:49:13;;;;;;;0.30;0.30;;;30.20;52.40;;;;;;4192238;28;20055;-63
2022/07/20 09:51:38;;;;;;;0.75;0.75;;;30.20;52.90;;;;;;4193058;28;20048;-63
2022/07/20 09:54:03;;;;;;;0.70;0.70;;;30.20;52.90;;;;;;4193683;28;20045;-63
2022/07/20 09:56:26;;;;;;;0.50;0.50;;;30.30;53.20;;;;;;4193143;28;20052;-63
2022/07/20 09:58:51;;;;;;;0.50;0.50;;;30.30;53.40;;;;;;4192273;28;20107;-63
2022/07/20 10:01:18;;;;;;;0.60;0.60;;;30.30;53.50;;;;;;4193252;28;20055;-63
2022/07/20 10:03:40;;;;;;;0.40;0.40;;;30.30;53.50;;;;;;4191744;28;20056;-63
2022/07/20 10:06:03;;;;;;;0.52;0.52;;;30.30;53.40;;;;;;4192234;28;20123;-63
2022/07/20 10:08:25;;;;;;;1.05;1.05;;;30.30;53.50;;;;;;4193549;28;20041;-63
2022/07/20 10:10:47;;;;;;;1.10;1.10;;;30.40;53.60;;;;;;4193479;28;20051;-63
2022/07/20 10:13:09;;;;;;;0.38;0.38;;;30.40;53.60;;;;;;4193672;28;20067;-64
2022/07/20 10:15:43;;;;;;;0.63;0.63;;;30.40;53.60;;;;;;4191729;28;20741;-63
2022/07/20 10:18:08;;;;;;;2.47;2.28;;;30.40;53.50;;;;;;4193482;28;20052;-62
2022/07/20 10:20:32;;;;;;;0.32;0.32;;;30.40;53.30;;;;;;4193633;28;20144;-62
2022/07/20 10:23:28;;;;;;;0.70;0.70;;;30.40;52.80;;;;;;4192870;28;20136;-63
2022/07/20 10:25:50;;;;;;;0.82;0.82;;;30.40;52.50;;;;;;4192672;28;20234;-63
2022/07/20 10:28:36;;;;;;;1.67;1.58;;;30.50;52.40;;;;;;4192989;28;20063;-63
2022/07/20 10:31:02;;;;;;;0.75;0.75;;;30.50;52.20;;;;;;4193245;28;20514;-62
2022/07/20 10:33:26;;;;;;;4.63;2.15;;;30.50;52.10;;;;;;4192999;28;20420;-62
2022/07/20 10:35:50;;;;;;;0.93;0.93;;;30.50;52.10;;;;;;4184825;28;20216;-62
2022/07/20 10:38:12;;;;;;;1.67;1.38;;;30.50;52.10;;;;;;4189211;28;20041;-64
2022/07/20 10:41:31;;;;;;;1.00;1.00;;;30.50;51.90;;;;;;4193103;28;20052;-64
2022/07/20 10:43:17;;;;;;;2.67;2.47;;;30.50;51.80;;;;;;4176068;28;20565;-63
2022/07/20 10:45:39;;;;;;;0.70;0.70;;;30.50;51.70;;;;;;4176327;28;20131;-63
2022/07/20 10:48:19;;;;;;;1.63;1.55;;;30.50;51.50;;;;;;4176196;28;20442;-63
2022/07/20 10:50:43;;;;;;;0.80;0.80;;;30.50;51.50;;;;;;4179896;28;20139;-64
2022/07/20 10:53:31;;;;;;;1.45;1.45;;;30.50;51.30;;;;;;4175557;28;20045;-63
2022/07/20 10:56:02;;;;;;;0.70;0.65;;;30.50;51.20;;;;;;4176289;28;20124;-63
2022/07/20 10:58:26;;;;;;;1.42;1.33;;;30.50;51.10;;;;;;4176203;28;20106;-63
2022/07/20 11:00:50;;;;;;;0.70;0.70;;;30.50;51.10;;;;;;4191256;28;20091;-63
2022/07/20 11:03:13;;;;;;;0.35;0.35;;;30.50;51.00;;;;;;4192348;28;20078;-64
2022/07/20 11:05:38;;;;;;;0.20;0.20;;;30.60;51.00;;;;;;4192637;28;20178;-63
2022/07/20 11:08:05;;;;;;;2.40;2.17;;;30.50;50.70;;;;;;4192100;28;20504;-64
2022/07/20 11:10:30;;;;;;;6.13;0.57;;;30.60;50.40;;;;;;4192799;28;20135;-63
2022/07/20 11:12:58;;;;;;;0.63;0.63;;;30.60;50.20;;;;;;4191658;28;20571;-63
2022/07/20 11:15:20;;;;;;;0.47;0.47;;;30.50;50.10;;;;;;4192122;28;20478;-63
2022/07/20 11:17:42;;;;;;;2.13;1.90;;;30.60;50.10;;;;;;4192264;28;20052;-63
2022/07/20 11:20:05;;;;;;;1.55;1.48;;;30.60;50.10;;;;;;4191010;28;20055;-63
2022/07/20 11:22:28;;;;;;;0.57;0.57;;;30.60;50.90;;;;;;4192320;28;20052;-63
2022/07/20 11:24:55;;;;;;;1.40;1.30;;;30.60;50.30;;;;;;4191471;28;20087;-63
2022/07/20 11:27:17;;;;;;;1.25;1.17;;;30.60;50.30;;;;;;4192186;28;20041;-63
2022/07/20 11:29:46;;;;;;;2.63;1.98;;;30.70;50.40;;;;;;4191942;28;20303;-64
2022/07/20 11:32:09;;;;;;;0.82;0.82;;;30.70;50.30;;;;;;4191518;28;20055;-63
2022/07/20 11:34:31;;;;;;;0.50;0.50;;;30.70;50.00;;;;;;4191877;28;20051;-64
2022/07/20 11:36:57;;;;;;;12.55;1.58;;;30.70;49.70;;;;;;4175196;28;20473;-63
2022/07/20 11:39:20;;;;;;;0.50;0.50;;;30.70;49.60;;;;;;4173984;28;20138;-63
2022/07/20 11:41:45;;;;;;;0.43;0.43;;;30.70;49.30;;;;;;4182761;28;20125;-63
2022/07/20 11:44:09;;;;;;;0.10;0.10;;;30.70;49.40;;;;;;4191843;28;20128;-63
2022/07/20 11:46:37;;;;;;;0.20;0.20;;;30.70;49.10;;;;;;4190693;28;20086;-63
2022/07/20 11:49:02;;;;;;;1.67;1.35;;;30.70;49.10;;;;;;4191454;28;20056;-62
2022/07/20 11:51:51;;;;;;;0.85;0.85;;;30.70;49.40;;;;;;4191089;28;20089;-62
2022/07/20 11:54:20;;;;;;;0.10;0.10;;;30.80;49.20;;;;;;4190892;28;20040;-62
2022/07/20 11:56:43;;;;;;;0.32;0.32;;;30.80;49.20;;;;;;4191005;28;20761;-64
2022/07/20 11:59:07;;;;;;;0.30;0.30;;;30.80;49.10;;;;;;4190380;28;20138;-62
2022/07/20 12:01:32;;;;;;;0.38;0.38;;;30.80;49.30;;;;;;4180053;28;20471;-63
2022/07/20 12:03:56;;;;;;;0.40;0.40;;;30.80;49.30;;;;;;4175038;28;20495;-63
2022/07/20 12:06:18;;;;;;;5.72;1.27;;;30.80;49.40;;;;;;4175106;28;20040;-62
2022/07/20 12:08:41;;;;;;;0.73;0.73;;;30.80;49.40;;;;;;4175297;28;20067;-63
2022/07/20 12:11:03;;;;;;;0.35;0.35;;;30.80;49.40;;;;;;4178932;28;20048;-62
2022/07/20 12:13:27;;;;;;;1.08;1.08;;;30.80;49.50;;;;;;4191496;28;20510;-63
2022/07/20 12:16:01;;;;;;;0.60;0.60;;;30.80;49.50;;;;;;4191602;28;20119;-63
2022/07/20 12:18:34;;;;;;;0.10;0.10;;;30.80;49.50;;;;;;4191113;28;20063;-63
2022/07/20 12:21:02;;;;;;;0.40;0.40;;;30.90;49.60;;;;;;4191376;28;20055;-63
2022/07/20 12:23:26;;;;;;;59.50;1.70;;;30.80;49.50;;;;;;4190285;28;20546;-63
2022/07/20 12:25:48;;;;;;;0.43;0.43;;;30.90;49.60;;;;;;4192099;28;20468;-63
2022/07/20 12:28:11;;;;;;;0.00;0.00;;;30.90;49.70;;;;;;4190365;28;20059;-63
2022/07/20 12:30:54;;;;;;;0.20;0.20;;;30.90;50.40;;;;;;4195853;28;20129;-63